createdAt,value
2022-12-07T00:01:39.759Z,98746.88
2022-12-07T00:04:07.558Z,98738.38
2022-12-07T00:06:38.782Z,98736.69
2022-12-07T00:09:06.855Z,98728.59
2022-12-07T00:11:33.850Z,98732.47
2022-12-07T00:14:02.936Z,98729.31
2022-12-07T00:16:31.936Z,98724.75
2022-12-07T00:18:58.922Z,98725.84
2022-12-07T00:21:30.760Z,98730.88
2022-12-07T00:23:58.109Z,98720.41
2022-12-07T00:26:27.577Z,98715.25
2022-12-07T00:28:56.299Z,98722.69
2022-12-07T00:31:25.900Z,98721.84
2022-12-07T00:33:52.380Z,98710.44
2022-12-07T00:36:26.915Z,98701.38
2022-12-07T00:38:55.410Z,98696.69
2022-12-07T00:41:23.951Z,98699.44
2022-12-07T00:43:50.783Z,98691.38
2022-12-07T00:46:18.490Z,98690.88
2022-12-07T00:48:45.600Z,98697.41
2022-12-07T00:51:14.178Z,98694.25
2022-12-07T00:53:41.957Z,98693.72
2022-12-07T00:56:10.802Z,98693.38
2022-12-07T00:58:37.227Z,98694.50
2022-12-07T01:01:05.437Z,98688.47
2022-12-07T01:03:32.155Z,98680.41
2022-12-07T01:05:58.969Z,98688.94
2022-12-07T01:08:27.113Z,98693.13
2022-12-07T01:11:02.646Z,98694.00
2022-12-07T01:13:29.883Z,98688.94
2022-12-07T01:16:01.431Z,98697.72
2022-12-07T01:18:29.622Z,98696.69
2022-12-07T01:21:03.211Z,98700.81
2022-12-07T01:23:30.528Z,98700.19
2022-12-07T01:26:01.945Z,98697.94
2022-12-07T01:28:28.553Z,98701.31
2022-12-07T01:31:07.352Z,98703.56
2022-12-07T01:33:36.189Z,98706.81
2022-12-07T01:36:16.963Z,98705.41
2022-12-07T01:38:44.292Z,98708.97
2022-12-07T01:41:11.035Z,98708.09
2022-12-07T01:43:37.476Z,98711.84
2022-12-07T01:46:05.200Z,98715.19
2022-12-07T01:48:37.229Z,98707.59
2022-12-07T01:51:09.848Z,98720.28
2022-12-07T01:53:39.460Z,98722.91
2022-12-07T01:56:09.055Z,98723.03
2022-12-07T01:58:36.191Z,98721.34
2022-12-07T02:01:02.776Z,98724.59
2022-12-07T02:03:35.475Z,98721.56
2022-12-07T02:06:01.930Z,98720.06
2022-12-07T02:08:28.494Z,98724.38
2022-12-07T02:10:55.419Z,98724.41
2022-12-07T02:13:31.955Z,98732.75
2022-12-07T02:16:32.280Z,98722.13
2022-12-07T02:19:24.158Z,98724.00
2022-12-07T02:22:02.973Z,98718.13
2022-12-07T02:24:49.622Z,98722.22
2022-12-07T02:27:48.592Z,98718.22
2022-12-07T02:30:21.123Z,98722.22
2022-12-07T02:33:04.082Z,98715.16
2022-12-07T02:35:40.965Z,98718.25
2022-12-07T02:38:16.920Z,98717.41
2022-12-07T02:41:05.489Z,98714.50
2022-12-07T02:43:37.160Z,98719.09
2022-12-07T02:46:11.612Z,98714.75
2022-12-07T02:48:39.813Z,98720.69
2022-12-07T02:51:06.417Z,98720.59
2022-12-07T02:53:33.798Z,98722.28
2022-12-07T02:56:08.795Z,98723.72
2022-12-07T02:59:11.311Z,98716.84
2022-12-07T03:02:18.670Z,98715.22
2022-12-07T03:04:51.377Z,98712.41
2022-12-07T03:07:39.603Z,98713.13
2022-12-07T03:10:29.886Z,98709.59
2022-12-07T03:13:02.978Z,98717.19
2022-12-07T03:15:42.880Z,98718.00
2022-12-07T03:18:11.999Z,98717.66
2022-12-07T03:20:40.678Z,98715.00
2022-12-07T03:23:10.923Z,98710.22
2022-12-07T03:25:44.383Z,98717.03
2022-12-07T03:28:14.683Z,98712.59
2022-12-07T03:30:50.225Z,98712.94
2022-12-07T03:33:36.129Z,98711.97
2022-12-07T03:36:08.531Z,98701.84
2022-12-07T03:39:01.578Z,98698.63
2022-12-07T03:41:31.922Z,98696.31
2022-12-07T03:43:58.958Z,98689.03
2022-12-07T03:46:38.630Z,98700.94
2022-12-07T03:49:24.967Z,98698.19
2022-12-07T03:51:57.782Z,98689.50
2022-12-07T03:54:31.376Z,98687.72
2022-12-07T03:56:59.545Z,98687.00
2022-12-07T03:59:27.033Z,98693.84
2022-12-07T04:01:56.091Z,98685.41
2022-12-07T04:04:24.273Z,98693.13
2022-12-07T04:06:50.855Z,98688.81
2022-12-07T04:09:17.920Z,98694.94
2022-12-07T04:11:44.908Z,98693.00
2022-12-07T04:14:20.354Z,98687.50
2022-12-07T04:16:57.361Z,98691.38
2022-12-07T04:19:27.263Z,98695.41
2022-12-07T04:21:53.845Z,98691.06
2022-12-07T04:24:20.260Z,98686.41
2022-12-07T04:26:47.697Z,98688.09
2022-12-07T04:29:15.061Z,98687.25
2022-12-07T04:31:42.259Z,98682.09
2022-12-07T04:34:09.043Z,98676.78
2022-12-07T04:36:35.832Z,98685.69
2022-12-07T04:39:02.728Z,98680.25
2022-12-07T04:41:29.159Z,98684.22
2022-12-07T04:44:00.674Z,98684.59
2022-12-07T04:46:29.417Z,98677.28
2022-12-07T04:48:56.176Z,98680.44
2022-12-07T04:51:25.787Z,98672.38
2022-12-07T04:53:54.376Z,98669.88
2022-12-07T04:56:21.446Z,98664.34
2022-12-07T04:58:48.961Z,98662.41
2022-12-07T05:01:18.005Z,98674.91
2022-12-07T05:03:44.823Z,98668.91
2022-12-07T05:06:13.773Z,98677.03
2022-12-07T05:08:41.183Z,98681.03
2022-12-07T05:11:08.613Z,98676.56
2022-12-07T05:13:35.765Z,98675.84
2022-12-07T05:16:02.417Z,98674.19
2022-12-07T05:18:28.755Z,98675.38
2022-12-07T05:20:55.397Z,98672.41
2022-12-07T05:23:21.766Z,98669.53
2022-12-07T05:25:48.213Z,98673.50
2022-12-07T05:28:14.640Z,98677.94
2022-12-07T05:30:41.128Z,98678.72
2022-12-07T05:33:07.524Z,98684.47
2022-12-07T05:35:33.977Z,98680.00
2022-12-07T05:38:00.387Z,98676.78
2022-12-07T05:40:26.809Z,98672.94
2022-12-07T05:42:53.223Z,98675.69
2022-12-07T05:45:19.744Z,98672.22
2022-12-07T05:47:46.127Z,98668.94
2022-12-07T05:50:12.563Z,98676.06
2022-12-07T05:52:38.950Z,98680.97
2022-12-07T05:55:07.876Z,98677.88
2022-12-07T05:57:34.280Z,98678.59
2022-12-07T06:00:01.098Z,98680.03
2022-12-07T06:02:27.877Z,98698.53
2022-12-07T06:04:54.305Z,98683.63
2022-12-07T06:07:20.720Z,98688.09
2022-12-07T06:09:47.245Z,98684.84
2022-12-07T06:12:32.648Z,98680.41
2022-12-07T06:14:59.347Z,98672.34
2022-12-07T06:17:25.767Z,98677.53
2022-12-07T06:19:52.384Z,98679.78
2022-12-07T06:22:19.089Z,98684.59
2022-12-07T06:24:45.632Z,98677.50
2022-12-07T06:27:12.155Z,98680.16
2022-12-07T06:29:38.574Z,98684.09
2022-12-07T06:32:05.792Z,98678.81
2022-12-07T06:34:32.579Z,98682.19
2022-12-07T06:36:59.033Z,98684.78
2022-12-07T06:39:27.470Z,98691.59
2022-12-07T06:41:54.857Z,98700.84
2022-12-07T06:44:22.839Z,98702.72
2022-12-07T06:46:50.219Z,98704.13
2022-12-07T06:49:16.747Z,98702.03
2022-12-07T06:51:44.134Z,98712.09
2022-12-07T06:54:12.202Z,98709.16
2022-12-07T06:56:38.714Z,98708.44
2022-12-07T06:59:07.250Z,98714.41
2022-12-07T07:01:35.102Z,98724.22
2022-12-07T07:04:02.738Z,98717.94
2022-12-07T07:06:29.427Z,98728.34
2022-12-07T07:08:56.180Z,98724.22
2022-12-07T07:11:22.647Z,98721.91
2022-12-07T07:13:50.569Z,98722.03
2022-12-07T07:16:17.545Z,98727.41
2022-12-07T07:18:44.335Z,98725.50
2022-12-07T07:21:10.936Z,98729.94
2022-12-07T07:23:37.438Z,98737.44
2022-12-07T07:26:04.202Z,98733.31
2022-12-07T07:28:30.614Z,98735.00
2022-12-07T07:30:57.240Z,98743.03
2022-12-07T07:33:23.877Z,98739.88
2022-12-07T07:35:50.481Z,98736.50
2022-12-07T07:38:16.905Z,98743.47
2022-12-07T07:40:43.580Z,98740.13
2022-12-07T07:43:10.177Z,98744.03
2022-12-07T07:45:36.832Z,98748.34
2022-12-07T07:48:03.401Z,98750.75
2022-12-07T07:50:29.966Z,98757.38
2022-12-07T07:52:58.665Z,98759.94
2022-12-07T07:55:25.530Z,98756.34
2022-12-07T07:57:54.884Z,98748.66
2022-12-07T08:00:22.376Z,98750.84
2022-12-07T08:02:48.965Z,98756.22
2022-12-07T08:05:15.652Z,98754.81
2022-12-07T08:07:42.365Z,98752.19
2022-12-07T08:10:11.827Z,98760.16
2022-12-07T08:13:00.113Z,98752.88
2022-12-07T08:15:29.014Z,98756.19
2022-12-07T08:17:55.901Z,98765.06
2022-12-07T08:20:22.454Z,98756.25
2022-12-07T08:22:57.879Z,98759.88
2022-12-07T08:25:25.466Z,98751.00
2022-12-07T08:27:52.333Z,98760.22
2022-12-07T08:30:19.362Z,98756.47
2022-12-07T08:32:46.791Z,98758.66
2022-12-07T08:35:14.024Z,98754.47
2022-12-07T08:37:40.694Z,98764.06
2022-12-07T08:40:11.656Z,98766.25
2022-12-07T08:42:41.328Z,98757.13
2022-12-07T08:45:13.038Z,98761.00
2022-12-07T08:47:56.041Z,98760.03
2022-12-07T08:50:23.011Z,98760.00
2022-12-07T08:52:54.610Z,98768.91
2022-12-07T08:55:21.800Z,98761.78
2022-12-07T08:57:48.632Z,98764.06
2022-12-07T09:00:15.528Z,98762.78
2022-12-07T09:02:42.305Z,98761.97
2022-12-07T09:05:14.835Z,98752.16
2022-12-07T09:07:45.732Z,98747.25
2022-12-07T09:10:12.789Z,98756.72
2022-12-07T09:12:39.217Z,98750.69
2022-12-07T09:15:06.582Z,98755.97
2022-12-07T09:17:34.679Z,98767.13
2022-12-07T09:20:02.411Z,98757.06
2022-12-07T09:22:31.235Z,98762.72
2022-12-07T09:24:59.054Z,98762.38
2022-12-07T09:27:26.111Z,98756.97
2022-12-07T09:29:52.551Z,98761.53
2022-12-07T09:32:19.150Z,98758.53
2022-12-07T09:34:45.511Z,98753.25
2022-12-07T09:37:12.263Z,98752.88
2022-12-07T09:39:41.276Z,98752.38
2022-12-07T09:42:30.615Z,98744.94
2022-12-07T09:44:57.729Z,98755.28
2022-12-07T09:47:24.160Z,98754.56
2022-12-07T09:49:50.586Z,98751.56
2022-12-07T09:52:32.988Z,98749.66
2022-12-07T09:55:04.636Z,98747.09
2022-12-07T09:57:35.463Z,98743.25
2022-12-07T10:00:07.380Z,98730.28
2022-12-07T10:02:45.760Z,98729.91
2022-12-07T10:05:22.120Z,98735.03
2022-12-07T10:07:51.030Z,98728.78
2022-12-07T10:10:26.445Z,98723.38
2022-12-07T10:13:04.135Z,98720.38
2022-12-07T10:16:06.661Z,98714.81
2022-12-07T10:18:37.027Z,98705.84
2022-12-07T10:21:05.532Z,98703.28
2022-12-07T10:23:31.965Z,98706.38
2022-12-07T10:25:58.366Z,98703.56
2022-12-07T10:28:41.716Z,98697.00
2022-12-07T10:31:21.427Z,98702.31
2022-12-07T10:33:57.307Z,98699.53
2022-12-07T10:36:36.479Z,98690.78
2022-12-07T10:39:14.458Z,98693.03
2022-12-07T10:42:00.799Z,98685.91
2022-12-07T10:44:32.550Z,98671.22
2022-12-07T10:46:59.334Z,98671.59
2022-12-07T10:49:42.990Z,98660.25
2022-12-07T10:52:30.798Z,98659.53
2022-12-07T10:55:06.533Z,98651.69
2022-12-07T10:57:52.915Z,98646.22
2022-12-07T11:00:24.598Z,98641.75
2022-12-07T11:02:59.408Z,98636.56
2022-12-07T11:05:25.844Z,98634.50
2022-12-07T11:07:56.979Z,98630.84
2022-12-07T11:10:42.134Z,98632.38
2022-12-07T11:13:28.687Z,98626.88
2022-12-07T11:15:58.552Z,98625.63
2022-12-07T11:18:42.931Z,98628.00
2022-12-07T11:21:21.659Z,98620.94
2022-12-07T11:24:18.048Z,98619.94
2022-12-07T11:27:06.258Z,98607.84
2022-12-07T11:30:01.300Z,98609.50
2022-12-07T11:32:45.998Z,98618.63
2022-12-07T11:35:18.556Z,98609.72
2022-12-07T11:37:46.772Z,98611.34
2022-12-07T11:40:36.814Z,98601.19
2022-12-07T11:43:12.283Z,98601.41
2022-12-07T11:45:43.384Z,98606.53
2022-12-07T11:48:26.001Z,98600.41
2022-12-07T11:50:58.221Z,98592.25
2022-12-07T11:53:36.395Z,98594.16
2022-12-07T11:56:10.085Z,98596.50
2022-12-07T11:58:51.679Z,98590.63
2022-12-07T12:01:36.542Z,98584.97
2022-12-07T12:04:11.929Z,98584.63
2022-12-07T12:06:40.187Z,98577.47
2022-12-07T12:15:19.575Z,98576.19
2022-12-07T12:18:28.265Z,98571.84
2022-12-07T12:21:05.116Z,98564.69
2022-12-07T12:23:42.420Z,98558.56
2022-12-07T12:26:34.148Z,98557.22
2022-12-07T12:29:00.482Z,98550.78
2022-12-07T12:31:37.991Z,98554.41
2022-12-07T12:34:24.765Z,98545.81
2022-12-07T12:36:51.339Z,98548.63
2022-12-07T12:39:19.885Z,98546.34
2022-12-07T12:41:49.182Z,98551.25
2022-12-07T12:44:15.596Z,98541.28
2022-12-07T12:46:51.058Z,98542.31
2022-12-07T12:49:20.409Z,98538.28
2022-12-07T12:52:08.684Z,98540.22
2022-12-07T12:54:37.983Z,98532.28
2022-12-07T12:57:32.139Z,98533.09
2022-12-07T13:00:00.385Z,98534.63
2022-12-07T13:02:31.104Z,98532.03
2022-12-07T13:05:11.110Z,98529.94
2022-12-07T13:07:50.769Z,98525.84
2022-12-07T13:10:33.364Z,98528.16
2022-12-07T13:13:12.114Z,98527.53
2022-12-07T13:15:41.537Z,98521.97
2022-12-07T13:18:37.544Z,98513.28
2022-12-07T13:21:04.067Z,98516.09
2022-12-07T13:23:51.594Z,98508.09
2022-12-07T13:26:38.122Z,98516.53
2022-12-07T13:29:10.432Z,98505.81
2022-12-07T13:31:51.280Z,98509.59
2022-12-07T13:34:34.431Z,98503.28
2022-12-07T13:37:06.189Z,98508.28
2022-12-07T13:39:45.226Z,98509.81
2022-12-07T13:42:23.218Z,98501.00
2022-12-07T13:44:49.602Z,98508.97
2022-12-07T13:47:24.003Z,98494.09
2022-12-07T13:49:57.674Z,98498.06
2022-12-07T13:52:29.941Z,98500.28
2022-12-07T13:55:02.514Z,98504.44
2022-12-07T13:57:31.583Z,98499.41
2022-12-07T13:59:59.413Z,98501.22
2022-12-07T14:02:34.905Z,98499.53
2022-12-07T14:05:23.874Z,98496.31
2022-12-07T14:08:02.183Z,98505.81
2022-12-07T14:10:37.272Z,98500.44
2022-12-07T14:13:32.100Z,98503.50
2022-12-07T14:15:59.224Z,98498.38
2022-12-07T14:18:45.875Z,98496.13
2022-12-07T14:21:16.771Z,98497.81
2022-12-07T14:23:43.642Z,98499.53
2022-12-07T14:26:20.948Z,98503.88
2022-12-07T14:28:48.453Z,98505.16
2022-12-07T14:31:24.008Z,98490.31
2022-12-07T14:33:52.738Z,98490.06
2022-12-07T14:36:19.130Z,98482.53
2022-12-07T14:38:45.788Z,98482.84
2022-12-07T14:41:34.146Z,98489.53
2022-12-07T14:44:22.387Z,98486.72
2022-12-07T14:46:48.858Z,98483.81
2022-12-07T14:54:59.219Z,98490.94
2022-12-07T14:57:25.680Z,98489.69
2022-12-07T14:59:52.113Z,98495.00
2022-12-07T15:02:18.543Z,98498.38
2022-12-07T15:04:48.090Z,98499.50
2022-12-07T15:07:21.876Z,98498.13
2022-12-07T15:09:49.509Z,98500.63
2022-12-07T15:12:16.237Z,98499.94
2022-12-07T15:14:42.747Z,98506.03
2022-12-07T15:17:22.075Z,98501.72
2022-12-07T15:19:52.616Z,98496.53
2022-12-07T15:22:19.023Z,98505.03
2022-12-07T15:24:45.421Z,98497.06
2022-12-07T15:27:11.844Z,98506.00
2022-12-07T15:29:38.300Z,98497.63
2022-12-07T15:32:04.909Z,98499.81
2022-12-07T15:34:39.640Z,98496.72
2022-12-07T15:37:07.579Z,98502.41
2022-12-07T15:39:33.962Z,98507.25
2022-12-07T15:42:00.419Z,98504.81
2022-12-07T15:44:45.521Z,98501.78
2022-12-07T15:47:12.066Z,98499.38
2022-12-07T15:49:38.525Z,98507.84
2022-12-07T15:52:05.136Z,98501.63
2022-12-07T15:54:32.945Z,98499.44
2022-12-07T15:56:59.492Z,98503.81
2022-12-07T15:59:27.764Z,98496.81
2022-12-07T16:01:54.342Z,98490.59
2022-12-07T16:04:21.189Z,98495.13
2022-12-07T16:06:47.884Z,98496.72
2022-12-07T16:09:14.198Z,98490.25
2022-12-07T16:11:40.668Z,98490.59
2022-12-07T16:14:07.147Z,98490.13
2022-12-07T16:16:33.691Z,98488.09
2022-12-07T16:19:00.161Z,98487.38
2022-12-07T16:21:26.617Z,98488.19
2022-12-07T16:23:53.175Z,98493.28
2022-12-07T16:26:21.470Z,98490.41
2022-12-07T16:28:52.984Z,98492.59
2022-12-07T16:31:22.617Z,98491.06
2022-12-07T16:33:50.279Z,98493.13
2022-12-07T16:36:34.306Z,98498.44
2022-12-07T16:39:04.827Z,98486.41
2022-12-07T16:41:31.493Z,98485.47
2022-12-07T16:43:57.971Z,98486.03
2022-12-07T16:46:24.517Z,98490.75
2022-12-07T16:48:51.268Z,98490.03
2022-12-07T16:51:17.846Z,98486.19
2022-12-07T16:53:44.313Z,98491.97
2022-12-07T16:56:15.523Z,98492.47
2022-12-07T16:58:43.539Z,98482.13
2022-12-07T17:01:11.320Z,98480.22
2022-12-07T17:03:38.057Z,98483.34
2022-12-07T17:06:04.556Z,98483.56
2022-12-07T17:08:31.014Z,98477.09
2022-12-07T17:10:57.554Z,98466.06
2022-12-07T17:13:42.783Z,98458.63
2022-12-07T17:16:09.293Z,98462.22
2022-12-07T17:18:36.611Z,98466.28
2022-12-07T17:21:08.593Z,98461.50
2022-12-07T17:23:36.801Z,98462.31
2022-12-07T17:26:12.920Z,98467.97
2022-12-07T17:28:39.838Z,98466.88
2022-12-07T17:31:08.640Z,98466.66
2022-12-07T17:33:36.133Z,98462.22
2022-12-07T17:36:10.581Z,98464.47
2022-12-07T17:38:37.139Z,98467.47
2022-12-07T17:41:35.713Z,98465.72
2022-12-07T17:44:06.307Z,98475.41
2022-12-07T17:46:33.848Z,98466.19
2022-12-07T17:49:01.330Z,98460.03
2022-12-07T17:51:46.528Z,98462.44
2022-12-07T17:54:14.195Z,98459.44
2022-12-07T17:56:41.251Z,98449.97
2022-12-07T17:59:08.214Z,98456.66
2022-12-07T18:01:35.572Z,98454.16
2022-12-07T18:04:03.025Z,98447.94
2022-12-07T18:06:29.585Z,98450.44
2022-12-07T18:08:56.046Z,98451.53
2022-12-07T18:11:22.995Z,98459.53
2022-12-07T18:13:49.804Z,98455.69
2022-12-07T18:16:19.625Z,98449.47
2022-12-07T18:18:52.303Z,98441.44
2022-12-07T18:21:21.829Z,98440.22
2022-12-07T18:23:51.315Z,98440.81
2022-12-07T18:26:19.263Z,98436.28
2022-12-07T18:28:46.194Z,98442.75
2022-12-07T18:31:15.597Z,98445.50
2022-12-07T18:33:44.213Z,98436.28
2022-12-07T18:36:12.458Z,98444.19
2022-12-07T18:38:39.531Z,98443.69
2022-12-07T18:41:11.906Z,98445.13
2022-12-07T18:43:38.858Z,98444.53
2022-12-07T18:46:20.221Z,98448.84
2022-12-07T18:48:49.368Z,98453.25
2022-12-07T18:51:18.094Z,98448.34
2022-12-07T18:53:44.977Z,98450.75
2022-12-07T18:56:17.230Z,98450.41
2022-12-07T18:59:02.889Z,98454.25
2022-12-07T19:01:30.608Z,98452.56
2022-12-07T19:03:58.260Z,98445.63
2022-12-07T19:06:24.803Z,98442.16
2022-12-07T19:08:51.482Z,98436.28
2022-12-07T19:11:45.866Z,98436.06
2022-12-07T19:14:13.837Z,98434.84
2022-12-07T19:16:42.197Z,98436.16
2022-12-07T19:19:08.779Z,98434.34
2022-12-07T19:21:35.113Z,98430.53
2022-12-07T19:24:06.508Z,98431.63
2022-12-07T19:26:33.169Z,98430.91
2022-12-07T19:28:59.669Z,98429.31
2022-12-07T19:31:26.454Z,98422.84
2022-12-07T19:33:53.092Z,98417.09
2022-12-07T19:36:19.789Z,98419.03
2022-12-07T19:38:46.254Z,98410.88
2022-12-07T19:41:49.561Z,98417.81
2022-12-07T19:44:27.192Z,98420.94
2022-12-07T19:47:02.560Z,98422.97
2022-12-07T19:49:33.920Z,98420.47
2022-12-07T19:52:04.292Z,98419.25
2022-12-07T19:54:31.804Z,98417.34
2022-12-07T19:56:58.523Z,98421.66
2022-12-07T19:59:28.833Z,98422.38
2022-12-07T20:01:55.991Z,98419.13
2022-12-07T20:04:29.127Z,98413.50
2022-12-07T20:06:58.750Z,98416.72
2022-12-07T20:09:26.246Z,98413.72
2022-12-07T20:12:11.849Z,98406.53
2022-12-07T20:14:38.944Z,98394.03
2022-12-07T20:17:06.192Z,98397.66
2022-12-07T20:19:36.808Z,98395.25
2022-12-07T20:22:03.575Z,98386.84
2022-12-07T20:24:30.348Z,98388.84
2022-12-07T20:26:57.221Z,98380.47
2022-12-07T20:29:24.810Z,98386.09
2022-12-07T20:31:52.844Z,98381.66
2022-12-07T20:34:20.144Z,98373.88
2022-12-07T20:36:46.698Z,98381.78
2022-12-07T20:39:13.245Z,98374.59
2022-12-07T20:41:59.015Z,98367.38
2022-12-07T20:44:25.598Z,98372.66
2022-12-07T20:46:52.186Z,98367.38
2022-12-07T20:49:18.824Z,98367.16
2022-12-07T20:51:46.025Z,98376.03
2022-12-07T20:54:13.927Z,98367.16
2022-12-07T20:56:41.620Z,98370.03
2022-12-07T20:59:12.519Z,98364.97
2022-12-07T21:01:40.178Z,98364.03
2022-12-07T21:04:07.592Z,98364.78
2022-12-07T21:06:34.565Z,98368.63
2022-12-07T21:09:01.164Z,98371.03
2022-12-07T21:11:28.577Z,98371.13
2022-12-07T21:13:55.418Z,98373.44
2022-12-07T21:16:25.025Z,98373.28
2022-12-07T21:18:52.235Z,98371.53
2022-12-07T21:21:19.943Z,98359.03
2022-12-07T21:23:49.032Z,98355.44
2022-12-07T21:26:19.106Z,98354.72
2022-12-07T21:28:46.337Z,98366.00
2022-12-07T21:31:13.817Z,98349.34
2022-12-07T21:33:41.597Z,98355.69
2022-12-07T21:36:10.199Z,98355.09
2022-12-07T21:38:36.749Z,98354.25
2022-12-07T21:41:12.781Z,98355.59
2022-12-07T21:43:39.816Z,98354.16
2022-12-07T21:46:06.526Z,98356.06
2022-12-07T21:48:33.140Z,98339.84
2022-12-07T21:51:10.075Z,98343.47
2022-12-07T21:53:38.151Z,98347.44
2022-12-07T21:56:05.401Z,98347.53
2022-12-07T21:58:31.912Z,98343.84
2022-12-07T22:00:59.633Z,98335.31
2022-12-07T22:03:26.136Z,98341.78
2022-12-07T22:05:52.601Z,98343.13
2022-12-07T22:08:19.400Z,98343.59
2022-12-07T22:10:45.932Z,98341.28
2022-12-07T22:13:12.356Z,98344.06
2022-12-07T22:15:41.068Z,98344.53
2022-12-07T22:18:08.077Z,98344.53
2022-12-07T22:20:35.076Z,98342.00
2022-12-07T22:23:01.929Z,98343.59
2022-12-07T22:25:28.348Z,98336.50
2022-12-07T22:27:54.784Z,98340.56
2022-12-07T22:30:21.178Z,98337.91
2022-12-07T22:32:48.993Z,98335.50
2022-12-07T22:35:15.950Z,98334.31
2022-12-07T22:37:42.372Z,98340.16
2022-12-07T22:40:09.168Z,98324.22
2022-12-07T22:42:35.589Z,98330.06
2022-12-07T22:45:02.427Z,98317.00
2022-12-07T22:47:29.220Z,98320.63
2022-12-07T22:49:55.883Z,98316.41
2022-12-07T22:52:22.351Z,98312.56
2022-12-07T22:54:49.033Z,98313.41
2022-12-07T22:57:15.481Z,98301.03
2022-12-07T22:59:42.159Z,98298.53
2022-12-07T23:02:08.561Z,98304.16
2022-12-07T23:04:35.018Z,98295.91
2022-12-07T23:07:01.625Z,98306.81
2022-12-07T23:09:27.972Z,98302.59
2022-12-07T23:12:12.769Z,98295.88
2022-12-07T23:14:39.311Z,98305.53
2022-12-07T23:17:05.835Z,98306.72
2022-12-07T23:19:32.231Z,98301.78
2022-12-07T23:21:58.765Z,98298.06
2022-12-07T23:24:25.215Z,98304.78
2022-12-07T23:26:52.498Z,98303.00
2022-12-07T23:29:18.970Z,98295.06
2022-12-07T23:31:46.982Z,98296.63
2022-12-07T23:34:13.651Z,98294.59
2022-12-07T23:36:40.077Z,98295.22
2022-12-07T23:39:07.105Z,98296.53
2022-12-07T23:41:33.528Z,98290.66
2022-12-07T23:44:01.217Z,98284.56
2022-12-07T23:46:31.193Z,98286.72
2022-12-07T23:48:59.815Z,98283.03
2022-12-07T23:51:26.427Z,98276.31
2022-12-07T23:53:53.625Z,98283.25
2022-12-07T23:56:23.466Z,98281.09
2022-12-07T23:58:50.940Z,98279.19
